sensor_id;sensor_type;location;lat;lon;timestamp;temperature;humidity
3942;DHT22;1985;48.592;8.850;2023-12-20T00:00:05;6.40;99.90
3942;DHT22;1985;48.592;8.850;2023-12-20T00:02:31;6.40;99.90
3942;DHT22;1985;48.592;8.850;2023-12-20T00:04:57;6.50;99.90
3942;DHT22;1985;48.592;8.850;2023-12-20T00:07:22;6.60;99.90
3942;DHT22;1985;48.592;8.850;2023-12-20T00:09:48;6.60;99.90
3942;DHT22;1985;48.592;8.850;2023-12-20T00:12:13;6.60;99.90
3942;DHT22;1985;48.592;8.850;2023-12-20T00:14:39;6.50;99.90
3942;DHT22;1985;48.592;8.850;2023-12-20T00:17:05;6.40;99.90
3942;DHT22;1985;48.592;8.850;2023-12-20T00:19:30;6.40;99.90
3942;DHT22;1985;48.592;8.850;2023-12-20T00:21:56;6.40;99.90
3942;DHT22;1985;48.592;8.850;2023-12-20T00:24:22;6.20;99.90
3942;DHT22;1985;48.592;8.850;2023-12-20T00:26:47;6.00;99.90
3942;DHT22;1985;48.592;8.850;2023-12-20T00:29:13;5.90;99.90
3942;DHT22;1985;48.592;8.850;2023-12-20T00:31:38;5.80;99.90
3942;DHT22;1985;48.592;8.850;2023-12-20T00:34:04;5.70;99.90
3942;DHT22;1985;48.592;8.850;2023-12-20T00:36:30;5.70;99.90
3942;DHT22;1985;48.592;8.850;2023-12-20T00:38:55;5.60;99.90
3942;DHT22;1985;48.592;8.850;2023-12-20T00:41:21;5.60;99.90
3942;DHT22;1985;48.592;8.850;2023-12-20T00:43:46;5.60;99.90
3942;DHT22;1985;48.592;8.850;2023-12-20T00:46:12;5.60;99.90
3942;DHT22;1985;48.592;8.850;2023-12-20T00:48:38;5.60;99.90
3942;DHT22;1985;48.592;8.850;2023-12-20T00:51:03;5.60;99.90
3942;DHT22;1985;48.592;8.850;2023-12-20T00:53:29;5.60;99.90
3942;DHT22;1985;48.592;8.850;2023-12-20T00:55:55;5.60;99.90
3942;DHT22;1985;48.592;8.850;2023-12-20T00:58:21;5.60;99.90
3942;DHT22;1985;48.592;8.850;2023-12-20T01:00:46;5.60;99.90
3942;DHT22;1985;48.592;8.850;2023-12-20T01:03:12;5.60;99.90
3942;DHT22;1985;48.592;8.850;2023-12-20T01:05:37;5.70;99.90
3942;DHT22;1985;48.592;8.850;2023-12-20T01:08:03;5.70;99.90
3942;DHT22;1985;48.592;8.850;2023-12-20T01:10:29;5.70;99.90
3942;DHT22;1985;48.592;8.850;2023-12-20T01:12:55;5.60;99.90
3942;DHT22;1985;48.592;8.850;2023-12-20T01:15:21;5.60;99.90
3942;DHT22;1985;48.592;8.850;2023-12-20T01:17:46;5.60;99.90
3942;DHT22;1985;48.592;8.850;2023-12-20T01:20:12;5.70;99.90
3942;DHT22;1985;48.592;8.850;2023-12-20T01:22:38;5.70;99.90
3942;DHT22;1985;48.592;8.850;2023-12-20T01:25:04;5.70;99.90
3942;DHT22;1985;48.592;8.850;2023-12-20T01:27:29;5.70;99.90
3942;DHT22;1985;48.592;8.850;2023-12-20T01:29:56;5.70;99.90
3942;DHT22;1985;48.592;8.850;2023-12-20T01:32:22;5.70;99.90
3942;DHT22;1985;48.592;8.850;2023-12-20T01:34:48;5.80;99.90
3942;DHT22;1985;48.592;8.850;2023-12-20T01:37:14;5.80;99.90
3942;DHT22;1985;48.592;8.850;2023-12-20T01:39:39;5.80;99.90
3942;DHT22;1985;48.592;8.850;2023-12-20T01:42:05;5.80;99.90
3942;DHT22;1985;48.592;8.850;2023-12-20T01:44:30;5.80;99.90
3942;DHT22;1985;48.592;8.850;2023-12-20T01:46:56;5.80;99.90
3942;DHT22;1985;48.592;8.850;2023-12-20T01:49:23;5.70;99.90
3942;DHT22;1985;48.592;8.850;2023-12-20T01:51:49;5.70;99.90
3942;DHT22;1985;48.592;8.850;2023-12-20T01:54:16;5.60;99.90
3942;DHT22;1985;48.592;8.850;2023-12-20T01:56:42;5.60;99.90
3942;DHT22;1985;48.592;8.850;2023-12-20T01:59:08;5.60;99.90
3942;DHT22;1985;48.592;8.850;2023-12-20T02:01:35;5.60;99.90
3942;DHT22;1985;48.592;8.850;2023-12-20T02:04:02;5.50;99.90
3942;DHT22;1985;48.592;8.850;2023-12-20T02:06:31;5.60;99.90
3942;DHT22;1985;48.592;8.850;2023-12-20T02:08:58;5.60;99.90
3942;DHT22;1985;48.592;8.850;2023-12-20T02:11:25;5.60;99.90
3942;DHT22;1985;48.592;8.850;2023-12-20T02:13:51;5.50;99.90
3942;DHT22;1985;48.592;8.850;2023-12-20T02:16:17;5.50;99.90
3942;DHT22;1985;48.592;8.850;2023-12-20T02:18:43;5.50;99.90
3942;DHT22;1985;48.592;8.850;2023-12-20T02:21:10;5.50;99.90
3942;DHT22;1985;48.592;8.850;2023-12-20T02:23:35;5.50;99.90
3942;DHT22;1985;48.592;8.850;2023-12-20T02:26:02;5.50;99.90
3942;DHT22;1985;48.592;8.850;2023-12-20T02:28:28;5.50;99.90
3942;DHT22;1985;48.592;8.850;2023-12-20T02:30:53;5.50;99.90
3942;DHT22;1985;48.592;8.850;2023-12-20T02:33:19;5.50;99.90
3942;DHT22;1985;48.592;8.850;2023-12-20T02:35:45;5.40;99.90
3942;DHT22;1985;48.592;8.850;2023-12-20T02:38:10;5.50;99.90
3942;DHT22;1985;48.592;8.850;2023-12-20T02:40:38;5.50;99.90
3942;DHT22;1985;48.592;8.850;2023-12-20T02:43:04;5.50;99.90
3942;DHT22;1985;48.592;8.850;2023-12-20T02:45:30;5.40;99.90
3942;DHT22;1985;48.592;8.850;2023-12-20T02:47:56;5.40;99.90
3942;DHT22;1985;48.592;8.850;2023-12-20T02:50:21;5.50;99.90
3942;DHT22;1985;48.592;8.850;2023-12-20T02:52:47;5.50;99.90
3942;DHT22;1985;48.592;8.850;2023-12-20T02:55:13;5.50;99.90
3942;DHT22;1985;48.592;8.850;2023-12-20T02:57:38;5.50;99.90
3942;DHT22;1985;48.592;8.850;2023-12-20T03:00:08;5.50;99.90
3942;DHT22;1985;48.592;8.850;2023-12-20T03:02:35;5.60;99.90
3942;DHT22;1985;48.592;8.850;2023-12-20T03:05:01;5.60;99.90
3942;DHT22;1985;48.592;8.850;2023-12-20T03:07:26;5.50;99.90
3942;DHT22;1985;48.592;8.850;2023-12-20T03:09:52;5.60;99.90
3942;DHT22;1985;48.592;8.850;2023-12-20T03:12:18;5.60;99.90
3942;DHT22;1985;48.592;8.850;2023-12-20T03:14:44;5.70;99.90
3942;DHT22;1985;48.592;8.850;2023-12-20T03:17:10;5.70;99.90
3942;DHT22;1985;48.592;8.850;2023-12-20T03:19:35;5.90;99.90
3942;DHT22;1985;48.592;8.850;2023-12-20T03:22:01;6.00;99.90
3942;DHT22;1985;48.592;8.850;2023-12-20T03:24:27;6.10;99.90
3942;DHT22;1985;48.592;8.850;2023-12-20T03:26:53;6.10;99.90
3942;DHT22;1985;48.592;8.850;2023-12-20T03:29:18;5.90;99.90
3942;DHT22;1985;48.592;8.850;2023-12-20T03:31:44;5.80;99.90
3942;DHT22;1985;48.592;8.850;2023-12-20T03:34:11;5.80;99.90
3942;DHT22;1985;48.592;8.850;2023-12-20T03:36:37;5.70;99.90
3942;DHT22;1985;48.592;8.850;2023-12-20T03:39:02;5.80;99.90
3942;DHT22;1985;48.592;8.850;2023-12-20T03:41:28;5.90;99.90
3942;DHT22;1985;48.592;8.850;2023-12-20T03:43:54;5.70;99.90
3942;DHT22;1985;48.592;8.850;2023-12-20T03:46:19;5.80;99.90
3942;DHT22;1985;48.592;8.850;2023-12-20T03:48:45;5.90;99.90
3942;DHT22;1985;48.592;8.850;2023-12-20T03:51:11;5.80;99.90
3942;DHT22;1985;48.592;8.850;2023-12-20T03:53:36;5.90;99.90
3942;DHT22;1985;48.592;8.850;2023-12-20T03:56:02;5.90;99.90
3942;DHT22;1985;48.592;8.850;2023-12-20T03:58:28;5.90;99.90
3942;DHT22;1985;48.592;8.850;2023-12-20T04:00:53;6.10;99.90
3942;DHT22;1985;48.592;8.850;2023-12-20T04:03:19;6.20;99.90
3942;DHT22;1985;48.592;8.850;2023-12-20T04:05:45;6.20;99.90
3942;DHT22;1985;48.592;8.850;2023-12-20T04:08:11;6.10;99.90
3942;DHT22;1985;48.592;8.850;2023-12-20T04:10:36;6.10;99.90
3942;DHT22;1985;48.592;8.850;2023-12-20T04:13:03;6.10;99.90
3942;DHT22;1985;48.592;8.850;2023-12-20T04:15:29;6.10;99.90
3942;DHT22;1985;48.592;8.850;2023-12-20T04:17:54;6.10;99.90
3942;DHT22;1985;48.592;8.850;2023-12-20T04:20:20;6.10;99.90
3942;DHT22;1985;48.592;8.850;2023-12-20T04:22:45;6.00;99.90
3942;DHT22;1985;48.592;8.850;2023-12-20T04:25:11;6.00;99.90
3942;DHT22;1985;48.592;8.850;2023-12-20T04:27:37;5.90;99.90
3942;DHT22;1985;48.592;8.850;2023-12-20T04:30:03;5.60;99.90
3942;DHT22;1985;48.592;8.850;2023-12-20T04:32:29;5.60;99.90
3942;DHT22;1985;48.592;8.850;2023-12-20T04:34:54;5.50;99.90
3942;DHT22;1985;48.592;8.850;2023-12-20T04:37:20;5.60;99.90
3942;DHT22;1985;48.592;8.850;2023-12-20T04:39:46;5.50;99.90
3942;DHT22;1985;48.592;8.850;2023-12-20T04:42:11;5.60;99.90
3942;DHT22;1985;48.592;8.850;2023-12-20T04:44:37;5.60;99.90
3942;DHT22;1985;48.592;8.850;2023-12-20T04:47:03;5.40;99.90
3942;DHT22;1985;48.592;8.850;2023-12-20T04:49:29;5.40;99.90
3942;DHT22;1985;48.592;8.850;2023-12-20T04:51:54;5.40;99.90
3942;DHT22;1985;48.592;8.850;2023-12-20T04:54:21;5.50;99.90
3942;DHT22;1985;48.592;8.850;2023-12-20T04:56:47;5.40;99.90
3942;DHT22;1985;48.592;8.850;2023-12-20T04:59:12;5.40;99.90
3942;DHT22;1985;48.592;8.850;2023-12-20T05:01:39;5.30;99.90
3942;DHT22;1985;48.592;8.850;2023-12-20T05:04:04;5.30;99.90
3942;DHT22;1985;48.592;8.850;2023-12-20T05:06:30;5.20;99.90
3942;DHT22;1985;48.592;8.850;2023-12-20T05:08:55;5.20;99.90
3942;DHT22;1985;48.592;8.850;2023-12-20T05:11:21;5.20;99.90
3942;DHT22;1985;48.592;8.850;2023-12-20T05:13:47;5.20;99.90
3942;DHT22;1985;48.592;8.850;2023-12-20T05:16:12;5.10;99.90
3942;DHT22;1985;48.592;8.850;2023-12-20T05:18:39;5.10;99.90
3942;DHT22;1985;48.592;8.850;2023-12-20T05:21:05;5.10;99.90
3942;DHT22;1985;48.592;8.850;2023-12-20T05:23:31;5.20;99.90
3942;DHT22;1985;48.592;8.850;2023-12-20T05:25:56;5.20;99.90
3942;DHT22;1985;48.592;8.850;2023-12-20T05:28:22;5.10;99.90
3942;DHT22;1985;48.592;8.850;2023-12-20T05:30:48;5.10;99.90
3942;DHT22;1985;48.592;8.850;2023-12-20T05:33:14;5.20;99.90
3942;DHT22;1985;48.592;8.850;2023-12-20T05:35:39;5.20;99.90
3942;DHT22;1985;48.592;8.850;2023-12-20T05:38:05;5.30;99.90
3942;DHT22;1985;48.592;8.850;2023-12-20T05:40:30;5.30;99.90
3942;DHT22;1985;48.592;8.850;2023-12-20T05:42:56;5.30;99.90
3942;DHT22;1985;48.592;8.850;2023-12-20T05:45:21;5.40;99.90
3942;DHT22;1985;48.592;8.850;2023-12-20T05:47:47;5.30;99.90
3942;DHT22;1985;48.592;8.850;2023-12-20T05:50:13;5.30;99.90
3942;DHT22;1985;48.592;8.850;2023-12-20T05:52:38;5.30;99.90
3942;DHT22;1985;48.592;8.850;2023-12-20T05:55:04;5.20;99.90
3942;DHT22;1985;48.592;8.850;2023-12-20T05:57:30;5.20;99.90
3942;DHT22;1985;48.592;8.850;2023-12-20T05:59:55;5.20;99.90
3942;DHT22;1985;48.592;8.850;2023-12-20T06:02:21;5.20;99.90
3942;DHT22;1985;48.592;8.850;2023-12-20T06:04:47;5.20;99.90
3942;DHT22;1985;48.592;8.850;2023-12-20T06:07:13;5.30;99.90
3942;DHT22;1985;48.592;8.850;2023-12-20T06:09:39;5.40;99.90
3942;DHT22;1985;48.592;8.850;2023-12-20T06:12:05;5.30;99.90
3942;DHT22;1985;48.592;8.850;2023-12-20T06:14:30;5.40;99.90
3942;DHT22;1985;48.592;8.850;2023-12-20T06:16:57;5.50;99.90
3942;DHT22;1985;48.592;8.850;2023-12-20T06:19:22;5.40;99.90
3942;DHT22;1985;48.592;8.850;2023-12-20T06:21:48;5.40;99.90
3942;DHT22;1985;48.592;8.850;2023-12-20T06:24:14;5.40;99.90
3942;DHT22;1985;48.592;8.850;2023-12-20T06:26:40;5.30;99.90
3942;DHT22;1985;48.592;8.850;2023-12-20T06:29:05;5.30;99.90
3942;DHT22;1985;48.592;8.850;2023-12-20T06:31:31;5.20;99.90
3942;DHT22;1985;48.592;8.850;2023-12-20T06:33:58;5.30;99.90
3942;DHT22;1985;48.592;8.850;2023-12-20T06:36:25;5.20;99.90
3942;DHT22;1985;48.592;8.850;2023-12-20T06:38:51;5.30;99.90
3942;DHT22;1985;48.592;8.850;2023-12-20T06:41:17;5.30;99.90
3942;DHT22;1985;48.592;8.850;2023-12-20T06:43:43;5.40;99.90
3942;DHT22;1985;48.592;8.850;2023-12-20T06:46:09;5.50;99.90
3942;DHT22;1985;48.592;8.850;2023-12-20T06:48:35;5.50;99.90
3942;DHT22;1985;48.592;8.850;2023-12-20T06:51:01;5.60;99.90
3942;DHT22;1985;48.592;8.850;2023-12-20T06:53:30;5.60;99.90
3942;DHT22;1985;48.592;8.850;2023-12-20T06:55:55;5.50;99.90
3942;DHT22;1985;48.592;8.850;2023-12-20T06:58:24;5.50;99.90
3942;DHT22;1985;48.592;8.850;2023-12-20T07:00:50;5.70;99.90
3942;DHT22;1985;48.592;8.850;2023-12-20T07:03:17;5.80;99.90
3942;DHT22;1985;48.592;8.850;2023-12-20T07:05:43;5.80;99.90
3942;DHT22;1985;48.592;8.850;2023-12-20T07:08:09;5.80;99.90
3942;DHT22;1985;48.592;8.850;2023-12-20T07:10:34;5.80;99.90
3942;DHT22;1985;48.592;8.850;2023-12-20T07:13:00;5.90;99.90
3942;DHT22;1985;48.592;8.850;2023-12-20T07:15:26;5.90;99.90
3942;DHT22;1985;48.592;8.850;2023-12-20T07:17:52;6.00;99.90
3942;DHT22;1985;48.592;8.850;2023-12-20T07:20:18;6.00;99.90
3942;DHT22;1985;48.592;8.850;2023-12-20T07:22:44;6.00;99.90
3942;DHT22;1985;48.592;8.850;2023-12-20T07:25:09;5.90;99.90
3942;DHT22;1985;48.592;8.850;2023-12-20T07:27:36;5.90;99.90
3942;DHT22;1985;48.592;8.850;2023-12-20T07:30:01;6.00;99.90
3942;DHT22;1985;48.592;8.850;2023-12-20T07:32:27;6.10;99.90
3942;DHT22;1985;48.592;8.850;2023-12-20T07:34:52;6.10;99.90
3942;DHT22;1985;48.592;8.850;2023-12-20T07:37:19;6.20;99.90
3942;DHT22;1985;48.592;8.850;2023-12-20T07:39:44;6.20;99.90
3942;DHT22;1985;48.592;8.850;2023-12-20T07:42:10;6.10;99.90
3942;DHT22;1985;48.592;8.850;2023-12-20T07:44:36;6.10;99.90
3942;DHT22;1985;48.592;8.850;2023-12-20T07:47:02;6.20;99.90
3942;DHT22;1985;48.592;8.850;2023-12-20T07:49:28;6.10;99.90
3942;DHT22;1985;48.592;8.850;2023-12-20T07:51:53;6.20;99.90
3942;DHT22;1985;48.592;8.850;2023-12-20T07:54:19;6.20;99.90
3942;DHT22;1985;48.592;8.850;2023-12-20T07:56:46;6.00;99.90
3942;DHT22;1985;48.592;8.850;2023-12-20T07:59:11;6.10;99.90
3942;DHT22;1985;48.592;8.850;2023-12-20T08:01:37;6.10;99.90
3942;DHT22;1985;48.592;8.850;2023-12-20T08:04:03;6.10;99.90
3942;DHT22;1985;48.592;8.850;2023-12-20T08:06:28;6.10;99.90
3942;DHT22;1985;48.592;8.850;2023-12-20T08:08:54;6.00;99.90
3942;DHT22;1985;48.592;8.850;2023-12-20T08:11:20;6.10;99.90
3942;DHT22;1985;48.592;8.850;2023-12-20T08:13:45;6.00;99.90
3942;DHT22;1985;48.592;8.850;2023-12-20T08:16:11;6.00;99.90
3942;DHT22;1985;48.592;8.850;2023-12-20T08:18:39;6.00;99.90
3942;DHT22;1985;48.592;8.850;2023-12-20T08:21:04;6.00;99.90
3942;DHT22;1985;48.592;8.850;2023-12-20T08:23:33;6.10;99.90
3942;DHT22;1985;48.592;8.850;2023-12-20T08:25:58;5.80;99.90
3942;DHT22;1985;48.592;8.850;2023-12-20T08:28:28;5.60;99.90
3942;DHT22;1985;48.592;8.850;2023-12-20T08:30:54;5.50;99.90
3942;DHT22;1985;48.592;8.850;2023-12-20T08:33:20;5.60;99.90
3942;DHT22;1985;48.592;8.850;2023-12-20T08:35:45;5.80;99.90
3942;DHT22;1985;48.592;8.850;2023-12-20T08:38:11;5.90;99.90
3942;DHT22;1985;48.592;8.850;2023-12-20T08:40:37;5.90;99.90
3942;DHT22;1985;48.592;8.850;2023-12-20T08:43:03;5.90;99.90
3942;DHT22;1985;48.592;8.850;2023-12-20T08:45:29;5.70;99.90
3942;DHT22;1985;48.592;8.850;2023-12-20T08:47:54;5.50;99.90
3942;DHT22;1985;48.592;8.850;2023-12-20T08:50:20;5.60;99.90
3942;DHT22;1985;48.592;8.850;2023-12-20T08:52:46;5.70;99.90
3942;DHT22;1985;48.592;8.850;2023-12-20T08:55:11;5.60;99.90
3942;DHT22;1985;48.592;8.850;2023-12-20T08:57:38;5.60;99.90
3942;DHT22;1985;48.592;8.850;2023-12-20T09:00:04;5.50;99.90
3942;DHT22;1985;48.592;8.850;2023-12-20T09:02:32;5.40;99.90
3942;DHT22;1985;48.592;8.850;2023-12-20T09:04:58;5.40;99.90
3942;DHT22;1985;48.592;8.850;2023-12-20T09:07:25;5.40;99.90
3942;DHT22;1985;48.592;8.850;2023-12-20T09:09:51;5.10;99.90
3942;DHT22;1985;48.592;8.850;2023-12-20T09:12:20;5.00;99.90
3942;DHT22;1985;48.592;8.850;2023-12-20T09:14:46;5.20;99.90
3942;DHT22;1985;48.592;8.850;2023-12-20T09:17:12;5.40;99.90
3942;DHT22;1985;48.592;8.850;2023-12-20T09:19:38;5.40;99.90
3942;DHT22;1985;48.592;8.850;2023-12-20T09:22:05;5.40;99.90
3942;DHT22;1985;48.592;8.850;2023-12-20T09:24:31;5.50;99.90
3942;DHT22;1985;48.592;8.850;2023-12-20T09:26:56;5.60;99.90
3942;DHT22;1985;48.592;8.850;2023-12-20T09:29:23;5.50;99.90
3942;DHT22;1985;48.592;8.850;2023-12-20T09:31:50;5.80;99.90
3942;DHT22;1985;48.592;8.850;2023-12-20T09:34:16;5.90;99.90
3942;DHT22;1985;48.592;8.850;2023-12-20T09:36:42;6.00;99.90
3942;DHT22;1985;48.592;8.850;2023-12-20T09:39:16;6.10;99.90
3942;DHT22;1985;48.592;8.850;2023-12-20T09:41:52;6.40;99.90
3942;DHT22;1985;48.592;8.850;2023-12-20T09:44:22;6.60;99.90
3942;DHT22;1985;48.592;8.850;2023-12-20T09:46:50;6.30;99.90
3942;DHT22;1985;48.592;8.850;2023-12-20T09:49:17;6.20;99.90
3942;DHT22;1985;48.592;8.850;2023-12-20T09:51:44;6.40;99.90
3942;DHT22;1985;48.592;8.850;2023-12-20T09:54:10;6.70;99.90
3942;DHT22;1985;48.592;8.850;2023-12-20T09:56:37;6.90;99.90
3942;DHT22;1985;48.592;8.850;2023-12-20T09:59:03;6.60;99.90
3942;DHT22;1985;48.592;8.850;2023-12-20T10:01:30;6.20;99.90
3942;DHT22;1985;48.592;8.850;2023-12-20T10:03:57;6.30;99.90
3942;DHT22;1985;48.592;8.850;2023-12-20T10:06:25;6.30;99.90
3942;DHT22;1985;48.592;8.850;2023-12-20T10:08:52;6.20;99.90
3942;DHT22;1985;48.592;8.850;2023-12-20T10:11:19;6.00;99.90
3942;DHT22;1985;48.592;8.850;2023-12-20T10:13:47;5.90;99.90
3942;DHT22;1985;48.592;8.850;2023-12-20T10:16:13;6.10;99.90
3942;DHT22;1985;48.592;8.850;2023-12-20T10:18:39;7.10;99.90
3942;DHT22;1985;48.592;8.850;2023-12-20T10:21:06;7.30;99.90
3942;DHT22;1985;48.592;8.850;2023-12-20T10:23:33;7.60;99.90
3942;DHT22;1985;48.592;8.850;2023-12-20T10:25:59;7.70;99.90
3942;DHT22;1985;48.592;8.850;2023-12-20T10:28:25;8.10;99.90
3942;DHT22;1985;48.592;8.850;2023-12-20T10:30:55;10.00;99.90
3942;DHT22;1985;48.592;8.850;2023-12-20T10:33:27;12.80;99.90
3942;DHT22;1985;48.592;8.850;2023-12-20T10:35:57;14.70;90.60
3942;DHT22;1985;48.592;8.850;2023-12-20T10:38:23;16.10;89.40
3942;DHT22;1985;48.592;8.850;2023-12-20T10:40:54;18.30;73.00
3942;DHT22;1985;48.592;8.850;2023-12-20T10:43:20;16.80;66.30
3942;DHT22;1985;48.592;8.850;2023-12-20T10:45:46;14.40;66.40
3942;DHT22;1985;48.592;8.850;2023-12-20T10:48:11;11.80;74.00
3942;DHT22;1985;48.592;8.850;2023-12-20T10:50:38;10.00;82.70
3942;DHT22;1985;48.592;8.850;2023-12-20T10:53:04;8.40;88.90
3942;DHT22;1985;48.592;8.850;2023-12-20T10:55:30;7.60;93.30
3942;DHT22;1985;48.592;8.850;2023-12-20T10:58:01;7.30;96.10
3942;DHT22;1985;48.592;8.850;2023-12-20T11:00:29;6.90;99.90
3942;DHT22;1985;48.592;8.850;2023-12-20T11:02:56;7.00;99.90
3942;DHT22;1985;48.592;8.850;2023-12-20T11:05:29;7.30;99.90
3942;DHT22;1985;48.592;8.850;2023-12-20T11:08:02;7.10;99.90
3942;DHT22;1985;48.592;8.850;2023-12-20T11:10:35;6.90;99.90
3942;DHT22;1985;48.592;8.850;2023-12-20T11:15:57;7.10;99.90
3942;DHT22;1985;48.592;8.850;2023-12-20T11:18:29;7.00;99.90
3942;DHT22;1985;48.592;8.850;2023-12-20T11:21:04;6.80;99.90
3942;DHT22;1985;48.592;8.850;2023-12-20T11:23:31;6.90;99.90
3942;DHT22;1985;48.592;8.850;2023-12-20T11:25:59;6.70;99.90
3942;DHT22;1985;48.592;8.850;2023-12-20T11:28:26;6.50;99.90
3942;DHT22;1985;48.592;8.850;2023-12-20T11:30:54;6.40;99.90
3942;DHT22;1985;48.592;8.850;2023-12-20T11:33:29;6.30;99.90
3942;DHT22;1985;48.592;8.850;2023-12-20T11:35:59;6.50;99.90
3942;DHT22;1985;48.592;8.850;2023-12-20T11:38:25;6.20;99.90
3942;DHT22;1985;48.592;8.850;2023-12-20T11:40:54;6.20;99.90
3942;DHT22;1985;48.592;8.850;2023-12-20T11:43:39;6.20;99.90
3942;DHT22;1985;48.592;8.850;2023-12-20T11:46:05;6.10;99.90
3942;DHT22;1985;48.592;8.850;2023-12-20T11:48:32;5.90;99.90
3942;DHT22;1985;48.592;8.850;2023-12-20T11:50:58;6.10;99.90
3942;DHT22;1985;48.592;8.850;2023-12-20T11:53:24;6.10;99.90
3942;DHT22;1985;48.592;8.850;2023-12-20T11:55:50;6.20;99.90
3942;DHT22;1985;48.592;8.850;2023-12-20T11:58:16;6.10;99.90
3942;DHT22;1985;48.592;8.850;2023-12-20T12:00:42;6.10;99.90
3942;DHT22;1985;48.592;8.850;2023-12-20T12:03:09;5.90;99.90
3942;DHT22;1985;48.592;8.850;2023-12-20T12:05:35;5.90;99.90
3942;DHT22;1985;48.592;8.850;2023-12-20T12:08:02;5.80;99.90
3942;DHT22;1985;48.592;8.850;2023-12-20T12:10:28;5.80;99.90
3942;DHT22;1985;48.592;8.850;2023-12-20T12:12:54;6.10;99.90
3942;DHT22;1985;48.592;8.850;2023-12-20T12:15:21;5.90;99.90
3942;DHT22;1985;48.592;8.850;2023-12-20T12:17:57;6.10;99.90
3942;DHT22;1985;48.592;8.850;2023-12-20T12:20:23;6.20;99.90
3942;DHT22;1985;48.592;8.850;2023-12-20T12:23:02;6.10;99.90
3942;DHT22;1985;48.592;8.850;2023-12-20T12:25:32;6.30;99.90
3942;DHT22;1985;48.592;8.850;2023-12-20T12:27:58;6.30;99.90
3942;DHT22;1985;48.592;8.850;2023-12-20T12:30:25;6.20;99.90
3942;DHT22;1985;48.592;8.850;2023-12-20T12:32:52;6.40;99.90
3942;DHT22;1985;48.592;8.850;2023-12-20T12:35:18;6.30;99.90
3942;DHT22;1985;48.592;8.850;2023-12-20T12:37:44;6.40;99.90
3942;DHT22;1985;48.592;8.850;2023-12-20T12:40:11;6.50;99.90
3942;DHT22;1985;48.592;8.850;2023-12-20T12:42:37;6.40;99.90
3942;DHT22;1985;48.592;8.850;2023-12-20T12:45:04;6.20;99.90
3942;DHT22;1985;48.592;8.850;2023-12-20T12:47:30;6.10;99.90
3942;DHT22;1985;48.592;8.850;2023-12-20T12:49:56;6.10;99.90
3942;DHT22;1985;48.592;8.850;2023-12-20T12:52:22;6.70;99.90
3942;DHT22;1985;48.592;8.850;2023-12-20T12:54:48;7.40;99.90
3942;DHT22;1985;48.592;8.850;2023-12-20T12:57:15;7.50;99.90
3942;DHT22;1985;48.592;8.850;2023-12-20T12:59:43;7.40;99.90
3942;DHT22;1985;48.592;8.850;2023-12-20T13:02:11;7.10;99.90
3942;DHT22;1985;48.592;8.850;2023-12-20T13:04:37;7.10;99.90
3942;DHT22;1985;48.592;8.850;2023-12-20T13:07:03;6.90;99.90
3942;DHT22;1985;48.592;8.850;2023-12-20T13:09:29;7.90;99.90
3942;DHT22;1985;48.592;8.850;2023-12-20T13:11:55;8.30;99.90
3942;DHT22;1985;48.592;8.850;2023-12-20T13:14:21;8.60;99.90
3942;DHT22;1985;48.592;8.850;2023-12-20T13:16:47;9.00;99.90
3942;DHT22;1985;48.592;8.850;2023-12-20T13:19:13;8.80;99.70
3942;DHT22;1985;48.592;8.850;2023-12-20T13:21:38;8.80;99.90
3942;DHT22;1985;48.592;8.850;2023-12-20T13:24:05;9.00;98.90
3942;DHT22;1985;48.592;8.850;2023-12-20T13:26:31;9.10;98.70
3942;DHT22;1985;48.592;8.850;2023-12-20T13:28:58;8.80;98.40
3942;DHT22;1985;48.592;8.850;2023-12-20T13:31:24;8.70;98.20
3942;DHT22;1985;48.592;8.850;2023-12-20T13:33:49;8.10;99.00
3942;DHT22;1985;48.592;8.850;2023-12-20T13:36:15;8.10;99.50
3942;DHT22;1985;48.592;8.850;2023-12-20T13:38:41;8.10;99.90
3942;DHT22;1985;48.592;8.850;2023-12-20T13:41:06;7.70;99.60
3942;DHT22;1985;48.592;8.850;2023-12-20T13:43:32;7.80;99.90
3942;DHT22;1985;48.592;8.850;2023-12-20T13:45:59;7.60;99.90
3942;DHT22;1985;48.592;8.850;2023-12-20T13:48:24;7.20;99.90
3942;DHT22;1985;48.592;8.850;2023-12-20T13:50:50;7.00;99.90
3942;DHT22;1985;48.592;8.850;2023-12-20T13:53:16;6.70;99.90
3942;DHT22;1985;48.592;8.850;2023-12-20T13:55:41;6.40;99.90
3942;DHT22;1985;48.592;8.850;2023-12-20T13:58:07;6.50;99.90
3942;DHT22;1985;48.592;8.850;2023-12-20T14:00:35;6.10;99.90
3942;DHT22;1985;48.592;8.850;2023-12-20T14:03:03;6.00;99.90
3942;DHT22;1985;48.592;8.850;2023-12-20T14:05:29;6.00;99.90
3942;DHT22;1985;48.592;8.850;2023-12-20T14:07:55;5.90;99.90
3942;DHT22;1985;48.592;8.850;2023-12-20T14:10:23;5.80;99.90
3942;DHT22;1985;48.592;8.850;2023-12-20T14:12:52;5.70;99.90
3942;DHT22;1985;48.592;8.850;2023-12-20T14:15:18;5.70;99.90
3942;DHT22;1985;48.592;8.850;2023-12-20T14:17:43;5.40;99.90
3942;DHT22;1985;48.592;8.850;2023-12-20T14:20:09;5.20;99.90
3942;DHT22;1985;48.592;8.850;2023-12-20T14:22:35;5.00;99.90
3942;DHT22;1985;48.592;8.850;2023-12-20T14:25:02;4.90;99.90
3942;DHT22;1985;48.592;8.850;2023-12-20T14:27:28;4.80;99.90
3942;DHT22;1985;48.592;8.850;2023-12-20T14:33:15;4.60;99.90
3942;DHT22;1985;48.592;8.850;2023-12-20T14:35:41;4.70;99.90
3942;DHT22;1985;48.592;8.850;2023-12-20T14:38:08;4.70;99.90
3942;DHT22;1985;48.592;8.850;2023-12-20T14:40:34;4.70;99.90
3942;DHT22;1985;48.592;8.850;2023-12-20T14:42:59;4.60;99.90
3942;DHT22;1985;48.592;8.850;2023-12-20T14:45:25;4.60;99.90
3942;DHT22;1985;48.592;8.850;2023-12-20T14:47:51;4.50;99.90
3942;DHT22;1985;48.592;8.850;2023-12-20T14:50:17;4.40;99.90
3942;DHT22;1985;48.592;8.850;2023-12-20T14:52:44;4.30;99.90
3942;DHT22;1985;48.592;8.850;2023-12-20T14:55:11;4.30;99.90
3942;DHT22;1985;48.592;8.850;2023-12-20T14:57:36;4.30;99.90
3942;DHT22;1985;48.592;8.850;2023-12-20T15:00:02;4.40;99.90
3942;DHT22;1985;48.592;8.850;2023-12-20T15:02:28;4.40;99.90
3942;DHT22;1985;48.592;8.850;2023-12-20T15:04:54;4.40;99.90
3942;DHT22;1985;48.592;8.850;2023-12-20T15:07:29;4.40;99.90
3942;DHT22;1985;48.592;8.850;2023-12-20T18:45:41;4.60;99.90
3942;DHT22;1985;48.592;8.850;2023-12-20T18:48:07;4.60;99.90
3942;DHT22;1985;48.592;8.850;2023-12-20T18:50:32;4.60;99.90
3942;DHT22;1985;48.592;8.850;2023-12-20T18:52:58;4.60;99.90
3942;DHT22;1985;48.592;8.850;2023-12-20T18:55:24;4.70;99.90
3942;DHT22;1985;48.592;8.850;2023-12-20T18:57:49;4.60;99.90
3942;DHT22;1985;48.592;8.850;2023-12-20T19:00:15;4.60;99.90
3942;DHT22;1985;48.592;8.850;2023-12-20T19:02:41;4.50;99.90
3942;DHT22;1985;48.592;8.850;2023-12-20T19:05:07;4.50;99.90
3942;DHT22;1985;48.592;8.850;2023-12-20T19:07:33;4.50;99.90
3942;DHT22;1985;48.592;8.850;2023-12-20T19:09:59;4.50;99.90
3942;DHT22;1985;48.592;8.850;2023-12-20T19:12:24;4.50;99.90
3942;DHT22;1985;48.592;8.850;2023-12-20T19:14:50;4.50;99.90
3942;DHT22;1985;48.592;8.850;2023-12-20T19:17:15;4.40;99.90
3942;DHT22;1985;48.592;8.850;2023-12-20T19:19:41;4.50;99.90
3942;DHT22;1985;48.592;8.850;2023-12-20T19:22:07;4.40;99.90
3942;DHT22;1985;48.592;8.850;2023-12-20T19:24:33;4.50;99.90
3942;DHT22;1985;48.592;8.850;2023-12-20T19:26:58;4.40;99.90
3942;DHT22;1985;48.592;8.850;2023-12-20T19:29:24;4.40;99.90
3942;DHT22;1985;48.592;8.850;2023-12-20T19:31:50;4.50;99.90
3942;DHT22;1985;48.592;8.850;2023-12-20T19:34:19;4.40;99.90
3942;DHT22;1985;48.592;8.850;2023-12-20T19:36:45;4.40;99.90
3942;DHT22;1985;48.592;8.850;2023-12-20T19:39:10;4.40;99.90
3942;DHT22;1985;48.592;8.850;2023-12-20T19:41:36;4.40;99.90
3942;DHT22;1985;48.592;8.850;2023-12-20T19:44:02;4.40;99.90
3942;DHT22;1985;48.592;8.850;2023-12-20T19:46:28;4.40;99.90
3942;DHT22;1985;48.592;8.850;2023-12-20T19:48:54;4.20;99.90
3942;DHT22;1985;48.592;8.850;2023-12-20T19:51:20;4.20;99.90